createdAt,value
2022-11-06T00:01:46.460Z,10.72
2022-11-06T00:04:13.702Z,10.70
2022-11-06T00:06:49.520Z,10.71
2022-11-06T00:09:19.317Z,10.73
2022-11-06T00:11:47.031Z,10.74
2022-11-06T00:14:14.062Z,10.68
2022-11-06T00:16:42.389Z,10.69
2022-11-06T00:19:09.721Z,10.68
2022-11-06T00:21:36.853Z,10.59
2022-11-06T00:24:06.559Z,10.52
2022-11-06T00:26:35.278Z,10.56
2022-11-06T00:29:03.384Z,10.55
2022-11-06T00:31:33.020Z,10.49
2022-11-06T00:34:01.249Z,10.49
2022-11-06T00:36:33.157Z,10.48
2022-11-06T00:39:00.702Z,10.45
2022-11-06T00:41:27.997Z,10.47
2022-11-06T00:44:00.293Z,10.50
2022-11-06T00:46:27.494Z,10.47
2022-11-06T00:48:55.290Z,10.46
2022-11-06T00:51:31.503Z,10.41
2022-11-06T00:54:00.761Z,10.36
2022-11-06T00:56:27.453Z,10.34
2022-11-06T00:58:54.814Z,10.31
2022-11-06T01:01:25.142Z,10.37
2022-11-06T01:03:54.825Z,10.38
2022-11-06T01:06:24.741Z,10.33
2022-11-06T01:08:52.743Z,10.42
2022-11-06T01:11:23.118Z,10.42
2022-11-06T01:13:52.239Z,10.41
2022-11-06T01:16:19.429Z,10.38
2022-11-06T01:18:46.785Z,10.37
2022-11-06T01:21:16.907Z,10.34
2022-11-06T01:23:44.207Z,10.24
2022-11-06T01:26:12.757Z,10.08
2022-11-06T01:28:41.527Z,9.85
2022-11-06T01:31:11.860Z,9.82
2022-11-06T01:33:39.585Z,9.83
2022-11-06T01:36:09.745Z,9.79
2022-11-06T01:38:37.053Z,9.76
2022-11-06T01:41:04.041Z,9.76
2022-11-06T01:43:51.053Z,9.69
2022-11-06T01:46:19.490Z,9.80
2022-11-06T01:49:00.277Z,9.83
2022-11-06T01:51:29.599Z,9.84
2022-11-06T01:53:56.286Z,9.87
2022-11-06T01:56:23.630Z,9.88
2022-11-06T01:58:53.643Z,9.84
2022-11-06T02:01:20.688Z,9.83
2022-11-06T02:03:58.028Z,9.92
2022-11-06T02:06:25.425Z,9.96
2022-11-06T02:08:52.342Z,10.06
2022-11-06T02:11:19.299Z,10.23
2022-11-06T02:14:05.538Z,10.46
2022-11-06T02:16:52.893Z,10.68
2022-11-06T02:19:41.334Z,10.92
2022-11-06T02:22:37.275Z,11.08
2022-11-06T02:25:15.021Z,11.34
2022-11-06T02:27:47.761Z,11.58
2022-11-06T02:30:16.977Z,11.76
2022-11-06T02:33:03.478Z,11.95
2022-11-06T02:35:35.265Z,12.12
2022-11-06T02:38:08.137Z,12.22
2022-11-06T02:40:41.358Z,12.28
2022-11-06T02:43:09.309Z,12.30
2022-11-06T02:45:50.892Z,12.29
2022-11-06T02:48:23.244Z,12.32
2022-11-06T02:50:54.166Z,12.37
2022-11-06T02:53:23.760Z,12.38
2022-11-06T02:55:54.334Z,12.39
2022-11-06T02:58:28.709Z,12.46
2022-11-06T03:01:03.282Z,12.55
2022-11-06T03:03:36.568Z,12.59
2022-11-06T03:06:28.894Z,12.57
2022-11-06T03:09:03.569Z,12.58
2022-11-06T03:11:34.217Z,12.51
2022-11-06T03:14:36.538Z,12.48
2022-11-06T03:17:19.138Z,12.45
2022-11-06T03:19:58.022Z,12.49
2022-11-06T03:23:17.095Z,12.35
2022-11-06T03:25:49.225Z,12.13
2022-11-06T03:28:38.855Z,11.99
2022-11-06T03:31:11.755Z,11.79
2022-11-06T03:33:44.436Z,11.74
2022-11-06T03:36:20.443Z,11.69
2022-11-06T03:38:51.497Z,11.63
2022-11-06T03:41:45.159Z,11.57
2022-11-06T03:44:18.042Z,11.58
2022-11-06T03:46:53.857Z,11.59
2022-11-06T03:49:26.965Z,11.63
2022-11-06T03:51:58.526Z,11.66
2022-11-06T03:54:32.504Z,11.68
2022-11-06T03:57:11.536Z,11.70
2022-11-06T03:59:53.474Z,11.71
2022-11-06T04:02:23.990Z,11.67
2022-11-06T04:04:56.478Z,11.67
2022-11-06T04:07:33.597Z,11.62
2022-11-06T04:10:23.907Z,11.65
2022-11-06T04:13:10.991Z,11.61
2022-11-06T04:15:43.918Z,11.61
2022-11-06T04:18:17.480Z,11.60
2022-11-06T04:21:22.916Z,11.59
2022-11-06T04:24:20.914Z,11.64
2022-11-06T04:26:57.978Z,11.61
2022-11-06T04:29:42.417Z,11.62
2022-11-06T04:32:46.745Z,11.63
2022-11-06T04:35:22.528Z,11.62
2022-11-06T04:38:05.668Z,11.59
2022-11-06T04:40:59.028Z,11.65
2022-11-06T04:43:55.123Z,11.64
2022-11-06T04:46:28.177Z,11.62
2022-11-06T04:48:55.328Z,11.59
2022-11-06T04:51:26.511Z,11.58
2022-11-06T04:53:54.355Z,11.50
2022-11-06T04:56:27.449Z,11.53
2022-11-06T04:58:56.149Z,11.51
2022-11-06T05:01:23.242Z,11.49
2022-11-06T05:03:50.253Z,11.44
2022-11-06T05:06:17.202Z,11.43
2022-11-06T05:08:44.299Z,11.45
2022-11-06T05:11:11.115Z,11.44
2022-11-06T05:13:38.541Z,11.48
2022-11-06T05:16:05.930Z,11.48
2022-11-06T05:18:33.244Z,11.48
2022-11-06T05:21:22.706Z,11.48
2022-11-06T05:23:49.540Z,11.51
2022-11-06T05:26:16.376Z,11.54
2022-11-06T05:28:43.379Z,11.55
2022-11-06T05:31:10.246Z,11.56
2022-11-06T05:33:37.092Z,11.54
2022-11-06T05:36:06.324Z,11.60
2022-11-06T05:38:33.347Z,11.58
2022-11-06T05:41:00.509Z,11.61
2022-11-06T05:43:27.354Z,11.48
2022-11-06T05:45:54.314Z,11.60
2022-11-06T05:48:21.395Z,11.60
2022-11-06T05:50:48.234Z,11.57
2022-11-06T05:53:15.997Z,11.57
2022-11-06T05:55:43.889Z,11.61
2022-11-06T05:58:11.552Z,11.63
2022-11-06T06:00:38.584Z,11.68
2022-11-06T06:03:05.504Z,11.63
2022-11-06T06:05:32.457Z,11.74
2022-11-06T06:07:59.639Z,11.78
2022-11-06T06:10:26.597Z,11.80
2022-11-06T06:12:53.337Z,11.81
2022-11-06T06:15:20.220Z,11.89
2022-11-06T06:17:47.035Z,11.90
2022-11-06T06:20:14.321Z,11.97
2022-11-06T06:22:41.383Z,11.99
2022-11-06T06:25:17.396Z,12.01
2022-11-06T06:27:49.116Z,12.05
2022-11-06T06:30:16.120Z,12.07
2022-11-06T06:32:44.561Z,12.09
2022-11-06T06:35:11.629Z,12.09
2022-11-06T06:37:38.618Z,12.08
2022-11-06T06:40:06.266Z,12.12
2022-11-06T06:42:33.145Z,12.16
2022-11-06T06:44:59.948Z,12.10
2022-11-06T06:47:27.103Z,12.19
2022-11-06T06:49:53.893Z,12.18
2022-11-06T06:52:20.808Z,12.27
2022-11-06T06:54:47.736Z,12.31
2022-11-06T06:57:14.601Z,12.32
2022-11-06T06:59:41.402Z,12.31
2022-11-06T07:02:13.643Z,12.39
2022-11-06T07:04:40.510Z,12.41
2022-11-06T07:07:07.305Z,12.47
2022-11-06T07:09:34.318Z,12.47
2022-11-06T07:12:01.262Z,12.55
2022-11-06T07:14:28.111Z,12.54
2022-11-06T07:16:55.175Z,12.55
2022-11-06T07:19:22.201Z,12.63
2022-11-06T07:21:52.880Z,12.69
2022-11-06T07:24:19.907Z,12.72
2022-11-06T07:26:46.715Z,12.74
2022-11-06T07:29:13.625Z,12.79
2022-11-06T07:31:40.401Z,12.82
2022-11-06T07:34:07.192Z,12.83
2022-11-06T07:36:35.525Z,12.86
2022-11-06T07:39:02.337Z,12.90
2022-11-06T07:41:29.171Z,12.92
2022-11-06T07:43:56.053Z,12.98
2022-11-06T07:46:22.969Z,13.01
2022-11-06T07:48:50.138Z,13.03
2022-11-06T07:51:17.221Z,13.03
2022-11-06T07:53:44.073Z,13.06
2022-11-06T07:56:10.895Z,13.08
2022-11-06T07:58:38.879Z,13.08
2022-11-06T08:01:06.158Z,13.12
2022-11-06T08:03:34.474Z,13.17
2022-11-06T08:06:05.210Z,13.22
2022-11-06T08:08:32.366Z,13.23
2022-11-06T08:11:07.621Z,13.27
2022-11-06T08:13:35.685Z,13.27
2022-11-06T08:16:14.261Z,13.27
2022-11-06T08:18:41.770Z,13.28
2022-11-06T08:21:08.599Z,13.27
2022-11-06T08:23:36.342Z,13.30
2022-11-06T08:26:06.082Z,13.33
2022-11-06T08:28:32.938Z,13.36
2022-11-06T08:31:04.763Z,13.39
2022-11-06T08:33:31.719Z,13.36
2022-11-06T08:36:02.580Z,13.43
2022-11-06T08:38:29.729Z,13.42
2022-11-06T08:40:56.598Z,13.43
2022-11-06T08:43:26.600Z,13.41
2022-11-06T08:45:53.977Z,13.37
2022-11-06T08:48:21.231Z,13.28
2022-11-06T08:50:48.567Z,13.25
2022-11-06T08:53:17.111Z,13.18
2022-11-06T08:55:44.469Z,13.17
2022-11-06T08:58:11.285Z,13.10
2022-11-06T09:00:38.251Z,12.91
2022-11-06T09:03:10.097Z,12.94
2022-11-06T09:05:39.852Z,12.97
2022-11-06T09:08:06.640Z,12.93
2022-11-06T09:10:33.597Z,12.98
2022-11-06T09:13:00.490Z,12.93
2022-11-06T09:15:27.834Z,12.74
2022-11-06T09:17:55.197Z,13.02
2022-11-06T09:20:23.516Z,13.07
2022-11-06T09:22:50.873Z,13.05
2022-11-06T09:25:17.837Z,13.13
2022-11-06T09:27:46.598Z,13.12
2022-11-06T09:30:15.891Z,13.15
2022-11-06T09:32:51.911Z,13.15
2022-11-06T09:35:20.314Z,13.16
2022-11-06T09:37:47.250Z,13.09
2022-11-06T09:40:28.714Z,13.07
2022-11-06T09:43:01.039Z,13.04
2022-11-06T09:45:31.925Z,13.02
2022-11-06T09:48:17.792Z,12.99
2022-11-06T09:50:55.175Z,12.97
2022-11-06T09:53:37.328Z,12.91
2022-11-06T09:56:06.210Z,12.92
2022-11-06T09:58:38.836Z,12.86
2022-11-06T10:01:24.516Z,12.82
2022-11-06T10:03:56.916Z,12.81
2022-11-06T10:06:25.179Z,12.76
2022-11-06T10:08:55.617Z,12.79
2022-11-06T10:11:43.933Z,12.81
2022-11-06T10:14:24.554Z,12.79
2022-11-06T10:17:06.346Z,12.76
2022-11-06T10:19:53.603Z,12.74
2022-11-06T10:22:39.843Z,12.78
2022-11-06T10:25:25.017Z,12.81
2022-11-06T10:28:09.711Z,12.84
2022-11-06T10:30:59.562Z,12.87
2022-11-06T10:34:07.158Z,12.93
2022-11-06T10:36:39.630Z,12.97
2022-11-06T10:39:15.852Z,12.99
2022-11-06T10:41:49.053Z,13.05
2022-11-06T10:44:28.807Z,13.06
2022-11-06T10:47:19.017Z,13.15
2022-11-06T10:49:50.051Z,13.18
2022-11-06T10:52:46.098Z,13.24
2022-11-06T10:55:28.732Z,13.27
2022-11-06T10:58:05.119Z,13.29
2022-11-06T11:00:33.919Z,13.24
2022-11-06T11:03:03.523Z,13.28
2022-11-06T11:05:40.448Z,13.35
2022-11-06T11:08:27.833Z,13.32
2022-11-06T11:11:06.176Z,13.29
2022-11-06T11:13:34.113Z,13.27
2022-11-06T11:16:02.916Z,13.22
2022-11-06T11:18:32.526Z,13.19
2022-11-06T11:21:26.575Z,13.10
2022-11-06T11:24:11.762Z,13.04
2022-11-06T11:26:48.153Z,13.01
2022-11-06T11:29:17.021Z,12.99
2022-11-06T11:31:52.321Z,13.04
2022-11-06T11:34:23.165Z,13.02
2022-11-06T11:37:04.765Z,13.03
2022-11-06T11:39:34.221Z,13.04
2022-11-06T11:42:30.104Z,13.06
2022-11-06T11:45:09.063Z,13.08
2022-11-06T11:47:47.678Z,13.09
2022-11-06T11:50:33.872Z,13.06
2022-11-06T11:53:18.605Z,13.10
2022-11-06T11:55:50.253Z,13.12
2022-11-06T11:58:23.691Z,13.12
2022-11-06T12:01:03.470Z,13.12
2022-11-06T12:03:43.509Z,13.13
2022-11-06T12:06:16.158Z,13.15
2022-11-06T12:08:51.212Z,13.12
2022-11-06T12:11:25.246Z,13.05
2022-11-06T12:14:29.467Z,13.09
2022-11-06T12:17:21.151Z,13.06
2022-11-06T12:19:55.836Z,13.01
2022-11-06T12:22:28.156Z,13.07
2022-11-06T12:25:11.251Z,13.04
2022-11-06T12:27:42.680Z,12.96
2022-11-06T12:30:19.117Z,13.03
2022-11-06T12:32:48.920Z,13.03
2022-11-06T12:35:33.288Z,13.02
2022-11-06T12:38:37.718Z,13.03
2022-11-06T12:41:16.766Z,13.01
2022-11-06T12:43:49.089Z,12.97
2022-11-06T12:46:15.965Z,12.99
2022-11-06T12:48:45.790Z,12.98
2022-11-06T12:51:58.093Z,12.98
2022-11-06T12:54:33.830Z,12.99
2022-11-06T12:57:15.645Z,13.00
2022-11-06T13:00:00.420Z,13.02
2022-11-06T13:02:52.595Z,13.01
2022-11-06T13:05:28.699Z,13.01
2022-11-06T13:08:01.407Z,13.01
2022-11-06T13:10:41.142Z,13.00
2022-11-06T13:13:15.266Z,13.00
2022-11-06T13:16:03.605Z,12.99
2022-11-06T13:18:53.608Z,13.00
2022-11-06T13:21:51.523Z,12.99
2022-11-06T13:24:28.510Z,12.98
2022-11-06T13:27:09.696Z,12.92
2022-11-06T13:29:38.569Z,12.94
2022-11-06T13:32:12.161Z,12.98
2022-11-06T13:34:41.598Z,12.99
2022-11-06T13:37:18.905Z,12.98
2022-11-06T13:39:55.248Z,12.94
2022-11-06T13:42:41.633Z,12.99
2022-11-06T13:45:10.208Z,12.94
2022-11-06T13:47:55.120Z,13.00
2022-11-06T13:50:41.608Z,13.01
2022-11-06T13:53:55.493Z,13.05
2022-11-06T13:56:48.321Z,13.05
2022-11-06T13:59:33.699Z,13.08
2022-11-06T14:02:26.698Z,13.10
2022-11-06T14:04:54.201Z,13.11
2022-11-06T14:07:23.014Z,13.09
2022-11-06T14:09:50.200Z,13.15
2022-11-06T14:12:23.245Z,13.14
2022-11-06T14:14:55.030Z,13.13
2022-11-06T14:17:24.393Z,13.11
2022-11-06T14:19:51.397Z,13.13
2022-11-06T14:22:33.199Z,13.12
2022-11-06T14:25:02.340Z,13.12
2022-11-06T14:27:29.345Z,13.12
2022-11-06T14:30:08.065Z,13.12
2022-11-06T14:32:36.241Z,13.11
2022-11-06T14:35:33.491Z,13.09
2022-11-06T14:38:09.471Z,13.08
2022-11-06T14:40:38.736Z,13.06
2022-11-06T14:43:17.751Z,13.04
2022-11-06T14:46:06.324Z,13.04
2022-11-06T14:48:39.981Z,13.01
2022-11-06T14:51:10.212Z,13.00
2022-11-06T14:53:56.611Z,13.01
2022-11-06T14:56:37.351Z,13.03
2022-11-06T14:59:09.162Z,13.05
2022-11-06T15:01:37.643Z,13.03
2022-11-06T15:04:13.379Z,13.06
2022-11-06T15:06:46.118Z,13.05
2022-11-06T15:09:24.758Z,13.05
2022-11-06T15:12:01.839Z,13.04
2022-11-06T15:14:28.571Z,13.05
2022-11-06T15:17:05.336Z,13.02
2022-11-06T15:19:40.730Z,13.05
2022-11-06T15:22:28.857Z,13.07
2022-11-06T15:25:05.907Z,13.06
2022-11-06T15:27:42.943Z,13.05
2022-11-06T15:30:16.265Z,13.06
2022-11-06T15:32:46.116Z,13.03
2022-11-06T15:35:19.373Z,13.03
2022-11-06T15:37:50.552Z,13.06
2022-11-06T15:40:38.516Z,13.03
2022-11-06T15:43:34.237Z,13.03
2022-11-06T15:46:19.744Z,13.02
2022-11-06T15:48:46.732Z,13.02
2022-11-06T15:51:28.505Z,13.02
2022-11-06T15:53:55.788Z,12.98
2022-11-06T15:56:35.272Z,13.00
2022-11-06T15:59:11.194Z,13.03
2022-11-06T16:01:39.305Z,13.03
2022-11-06T16:04:15.948Z,13.03
2022-11-06T16:06:43.530Z,13.00
2022-11-06T16:09:21.729Z,13.01
2022-11-06T16:11:51.633Z,13.00
2022-11-06T16:14:19.537Z,13.04
2022-11-06T16:16:51.571Z,13.02
2022-11-06T16:19:18.569Z,13.03
2022-11-06T16:22:10.105Z,13.04
2022-11-06T16:25:19.224Z,12.97
2022-11-06T16:27:46.121Z,13.04
2022-11-06T16:30:25.253Z,13.01
2022-11-06T16:32:52.916Z,12.91
2022-11-06T16:35:37.122Z,12.97
2022-11-06T16:38:41.997Z,12.97
2022-11-06T16:41:12.601Z,12.93
2022-11-06T16:43:39.594Z,12.89
2022-11-06T16:46:08.438Z,12.89
2022-11-06T16:48:41.157Z,12.80
2022-11-06T16:51:14.685Z,12.76
2022-11-06T16:54:01.990Z,12.73
2022-11-06T16:56:34.581Z,12.70
2022-11-06T16:59:15.292Z,12.67
2022-11-06T17:01:46.981Z,12.62
2022-11-06T17:04:26.426Z,12.56
2022-11-06T17:06:54.352Z,12.57
2022-11-06T17:09:34.756Z,12.57
2022-11-06T17:12:03.268Z,12.55
2022-11-06T17:14:31.310Z,12.56
2022-11-06T17:17:00.676Z,12.56
2022-11-06T17:19:28.074Z,12.34
2022-11-06T17:21:55.710Z,12.53
2022-11-06T17:24:38.404Z,12.49
2022-11-06T17:27:06.129Z,12.52
2022-11-06T17:29:34.369Z,12.55
2022-11-06T17:32:01.237Z,12.54
2022-11-06T17:34:28.135Z,12.52
2022-11-06T17:36:55.022Z,12.50
2022-11-06T17:39:22.689Z,12.49
2022-11-06T17:41:49.556Z,12.49
2022-11-06T17:44:17.094Z,12.47
2022-11-06T17:46:46.683Z,12.41
2022-11-06T17:49:18.041Z,12.41
2022-11-06T17:51:58.623Z,12.38
2022-11-06T17:54:33.674Z,12.38
2022-11-06T17:57:03.006Z,12.37
2022-11-06T17:59:31.028Z,12.34
2022-11-06T18:01:58.044Z,12.27
2022-11-06T18:04:26.467Z,12.32
2022-11-06T18:06:54.300Z,12.31
2022-11-06T18:09:22.512Z,12.24
2022-11-06T18:11:51.289Z,12.21
2022-11-06T18:14:19.199Z,12.24
2022-11-06T18:16:46.504Z,12.21
2022-11-06T18:19:16.497Z,12.13
2022-11-06T18:21:43.784Z,12.13
2022-11-06T18:24:10.646Z,12.13
2022-11-06T18:26:37.553Z,12.14
2022-11-06T18:29:05.507Z,12.12
2022-11-06T18:31:32.681Z,12.11
2022-11-06T18:33:59.546Z,12.10
2022-11-06T18:36:26.470Z,12.07
2022-11-06T18:38:53.427Z,12.00
2022-11-06T18:41:22.164Z,12.03
2022-11-06T18:43:49.514Z,12.08
2022-11-06T18:46:18.615Z,12.02
2022-11-06T18:48:46.163Z,12.02
2022-11-06T18:51:32.717Z,12.03
2022-11-06T18:54:04.891Z,11.97
2022-11-06T18:56:33.251Z,11.99
2022-11-06T18:59:00.414Z,11.95
2022-11-06T19:01:28.054Z,11.94
2022-11-06T19:03:55.254Z,11.92
2022-11-06T19:06:22.376Z,11.84
2022-11-06T19:08:49.357Z,11.77
2022-11-06T19:11:18.247Z,11.79
2022-11-06T19:13:48.173Z,11.78
2022-11-06T19:16:19.532Z,11.81
2022-11-06T19:21:30.057Z,11.82
2022-11-06T19:24:04.471Z,11.81
2022-11-06T19:26:32.895Z,11.76
2022-11-06T19:29:00.892Z,11.70
2022-11-06T19:31:29.700Z,11.71
2022-11-06T19:33:58.175Z,11.74
2022-11-06T19:36:25.644Z,11.71
2022-11-06T19:38:53.295Z,11.69
2022-11-06T19:41:20.418Z,11.68
2022-11-06T19:43:47.311Z,11.67
2022-11-06T19:46:18.236Z,11.64
2022-11-06T19:48:47.773Z,11.58
2022-11-06T19:51:16.371Z,11.52
2022-11-06T19:53:43.841Z,11.45
2022-11-06T19:56:16.790Z,11.44
2022-11-06T19:58:43.977Z,11.42
2022-11-06T20:01:16.256Z,11.41
2022-11-06T20:03:43.620Z,11.39
2022-11-06T20:06:11.135Z,11.35
2022-11-06T20:08:39.011Z,11.32
2022-11-06T20:11:14.359Z,11.33
2022-11-06T20:13:42.610Z,11.23
2022-11-06T20:16:12.699Z,11.26
2022-11-06T20:18:39.940Z,11.27
2022-11-06T20:21:09.513Z,11.22
2022-11-06T20:23:36.654Z,11.19
2022-11-06T20:26:04.968Z,11.11
2022-11-06T20:28:32.757Z,11.04
2022-11-06T20:30:59.966Z,11.00
2022-11-06T20:33:26.838Z,10.94
2022-11-06T20:35:53.637Z,10.99
2022-11-06T20:38:20.953Z,11.01
2022-11-06T20:40:47.796Z,11.03
2022-11-06T20:43:14.944Z,10.99
2022-11-06T20:45:41.981Z,11.00
2022-11-06T20:48:09.368Z,10.99
2022-11-06T20:50:36.523Z,10.95
2022-11-06T20:53:03.531Z,10.87
2022-11-06T20:55:30.410Z,10.87
2022-11-06T20:57:58.132Z,10.91
2022-11-06T21:00:26.245Z,10.93
2022-11-06T21:02:57.538Z,10.95
2022-11-06T21:05:27.415Z,10.94
2022-11-06T21:07:54.306Z,10.99
2022-11-06T21:10:21.125Z,11.04
2022-11-06T21:12:47.928Z,11.09
2022-11-06T21:15:14.986Z,11.10
2022-11-06T21:17:42.753Z,11.13
2022-11-06T21:20:11.077Z,11.14
2022-11-06T21:22:37.913Z,11.12
2022-11-06T21:25:05.136Z,11.13
2022-11-06T21:27:32.016Z,11.14
2022-11-06T21:29:58.999Z,11.08
2022-11-06T21:32:25.840Z,11.05
2022-11-06T21:34:52.739Z,11.04
2022-11-06T21:37:19.584Z,10.95
2022-11-06T21:39:46.986Z,11.03
2022-11-06T21:42:13.890Z,10.96
2022-11-06T21:44:40.727Z,10.99
2022-11-06T21:47:07.492Z,11.02
2022-11-06T21:49:34.249Z,10.99
2022-11-06T21:52:23.969Z,10.98
2022-11-06T21:55:13.165Z,10.91
2022-11-06T21:57:40.005Z,10.84
2022-11-06T22:00:09.904Z,10.86
2022-11-06T22:02:39.885Z,10.84
2022-11-06T22:05:07.102Z,10.84
2022-11-06T22:07:33.989Z,10.82
2022-11-06T22:10:00.796Z,10.83
2022-11-06T22:12:27.588Z,10.82
2022-11-06T22:14:54.513Z,10.86
2022-11-06T22:17:21.447Z,10.82
2022-11-06T22:19:48.323Z,10.83
2022-11-06T22:22:15.153Z,10.85
2022-11-06T22:24:42.007Z,10.86
2022-11-06T22:27:08.881Z,10.89
2022-11-06T22:29:35.698Z,10.86
2022-11-06T22:32:02.555Z,10.92
2022-11-06T22:34:29.398Z,10.88
2022-11-06T22:36:56.169Z,10.91
2022-11-06T22:39:23.018Z,10.87
2022-11-06T22:41:49.890Z,10.88
2022-11-06T22:44:16.905Z,10.88
2022-11-06T22:46:43.947Z,10.82
2022-11-06T22:49:10.815Z,10.75
2022-11-06T22:51:37.642Z,10.77
2022-11-06T22:54:04.931Z,10.73
2022-11-06T22:56:32.423Z,10.73
2022-11-06T22:59:07.932Z,10.71
2022-11-06T23:01:40.361Z,10.68
2022-11-06T23:04:13.017Z,10.66
2022-11-06T23:06:39.828Z,10.66
2022-11-06T23:09:07.215Z,10.60
2022-11-06T23:11:34.098Z,10.58
2022-11-06T23:14:05.989Z,10.55
2022-11-06T23:16:53.823Z,10.53
2022-11-06T23:19:21.241Z,10.46
2022-11-06T23:21:48.190Z,10.45
2022-11-06T23:24:16.487Z,10.41
2022-11-06T23:26:44.547Z,10.41
2022-11-06T23:29:11.518Z,10.34
2022-11-06T23:31:38.549Z,10.39
2022-11-06T23:34:05.568Z,10.27
2022-11-06T23:36:32.505Z,10.36
2022-11-06T23:38:59.500Z,10.27
2022-11-06T23:41:46.067Z,10.29
2022-11-06T23:44:33.482Z,10.22
2022-11-06T23:47:01.110Z,10.16
2022-11-06T23:49:28.261Z,10.11
2022-11-06T23:51:55.177Z,10.06
2022-11-06T23:54:22.508Z,9.96
2022-11-06T23:56:49.393Z,9.90
2022-11-06T23:59:16.272Z,9.87
